sensor_id;sensor_type;location;lat;lon;timestamp;temperature;humidity
44117;DHT22;29781;49.480;8.512;2022-10-31T00:00:46;14.40;99.90
44117;DHT22;29781;49.480;8.512;2022-10-31T00:03:12;14.40;99.90
44117;DHT22;29781;49.480;8.512;2022-10-31T00:05:46;14.30;99.90
44117;DHT22;29781;49.480;8.512;2022-10-31T00:08:12;14.20;99.90
44117;DHT22;29781;49.480;8.512;2022-10-31T00:10:42;14.20;99.90
44117;DHT22;29781;49.480;8.512;2022-10-31T00:13:10;14.40;99.90
44117;DHT22;29781;49.480;8.512;2022-10-31T00:15:38;14.60;99.90
44117;DHT22;29781;49.480;8.512;2022-10-31T00:18:05;14.80;99.90
44117;DHT22;29781;49.480;8.512;2022-10-31T00:20:31;14.90;99.90
44117;DHT22;29781;49.480;8.512;2022-10-31T00:22:58;15.00;99.90
44117;DHT22;29781;49.480;8.512;2022-10-31T00:25:25;15.00;99.90
44117;DHT22;29781;49.480;8.512;2022-10-31T00:27:51;15.00;99.90
44117;DHT22;29781;49.480;8.512;2022-10-31T00:30:16;15.00;99.90
44117;DHT22;29781;49.480;8.512;2022-10-31T00:32:42;15.00;99.90
44117;DHT22;29781;49.480;8.512;2022-10-31T00:35:08;15.10;99.90
44117;DHT22;29781;49.480;8.512;2022-10-31T00:37:33;14.90;99.90
44117;DHT22;29781;49.480;8.512;2022-10-31T00:39:59;14.90;99.90
44117;DHT22;29781;49.480;8.512;2022-10-31T00:42:25;14.90;99.90
44117;DHT22;29781;49.480;8.512;2022-10-31T00:44:51;14.60;99.90
44117;DHT22;29781;49.480;8.512;2022-10-31T00:47:20;14.50;99.90
44117;DHT22;29781;49.480;8.512;2022-10-31T00:49:45;14.40;99.90
44117;DHT22;29781;49.480;8.512;2022-10-31T00:52:11;14.40;99.90
44117;DHT22;29781;49.480;8.512;2022-10-31T00:54:36;14.40;99.90
44117;DHT22;29781;49.480;8.512;2022-10-31T00:57:02;14.40;99.90
44117;DHT22;29781;49.480;8.512;2022-10-31T00:59:28;14.50;99.90
44117;DHT22;29781;49.480;8.512;2022-10-31T01:01:53;14.40;99.90
44117;DHT22;29781;49.480;8.512;2022-10-31T01:04:19;14.20;99.90
44117;DHT22;29781;49.480;8.512;2022-10-31T01:06:45;14.10;99.90
44117;DHT22;29781;49.480;8.512;2022-10-31T01:09:10;14.20;99.90
44117;DHT22;29781;49.480;8.512;2022-10-31T01:11:36;14.20;99.90
44117;DHT22;29781;49.480;8.512;2022-10-31T01:14:02;14.20;99.90
44117;DHT22;29781;49.480;8.512;2022-10-31T01:16:28;14.20;99.90
44117;DHT22;29781;49.480;8.512;2022-10-31T01:18:55;14.20;99.90
44117;DHT22;29781;49.480;8.512;2022-10-31T01:21:23;14.30;99.90
44117;DHT22;29781;49.480;8.512;2022-10-31T01:23:52;14.30;99.90
44117;DHT22;29781;49.480;8.512;2022-10-31T01:26:20;14.40;99.90
44117;DHT22;29781;49.480;8.512;2022-10-31T01:28:49;14.50;99.90
44117;DHT22;29781;49.480;8.512;2022-10-31T01:31:15;14.60;99.90
44117;DHT22;29781;49.480;8.512;2022-10-31T01:33:41;14.60;99.90
44117;DHT22;29781;49.480;8.512;2022-10-31T01:36:18;14.70;99.90
44117;DHT22;29781;49.480;8.512;2022-10-31T01:38:46;14.70;99.90
44117;DHT22;29781;49.480;8.512;2022-10-31T01:41:15;14.70;99.90
44117;DHT22;29781;49.480;8.512;2022-10-31T01:43:48;14.40;99.90
44117;DHT22;29781;49.480;8.512;2022-10-31T01:46:17;14.00;99.90
44117;DHT22;29781;49.480;8.512;2022-10-31T01:48:44;13.60;99.90
44117;DHT22;29781;49.480;8.512;2022-10-31T01:51:12;13.30;99.90
44117;DHT22;29781;49.480;8.512;2022-10-31T01:53:40;13.10;99.90
44117;DHT22;29781;49.480;8.512;2022-10-31T01:56:06;13.10;99.90
44117;DHT22;29781;49.480;8.512;2022-10-31T01:58:33;13.10;99.90
44117;DHT22;29781;49.480;8.512;2022-10-31T02:00:59;12.80;99.90
44117;DHT22;29781;49.480;8.512;2022-10-31T02:03:26;12.50;99.90
44117;DHT22;29781;49.480;8.512;2022-10-31T02:05:54;12.30;99.90
44117;DHT22;29781;49.480;8.512;2022-10-31T02:08:31;12.20;99.90
44117;DHT22;29781;49.480;8.512;2022-10-31T02:11:00;12.10;99.90
44117;DHT22;29781;49.480;8.512;2022-10-31T02:13:28;12.10;99.90
44117;DHT22;29781;49.480;8.512;2022-10-31T02:15:56;12.10;99.90
44117;DHT22;29781;49.480;8.512;2022-10-31T02:18:24;12.10;99.90
44117;DHT22;29781;49.480;8.512;2022-10-31T02:34:09;12.80;99.90
44117;DHT22;29781;49.480;8.512;2022-10-31T02:37:21;12.70;99.90
44117;DHT22;29781;49.480;8.512;2022-10-31T02:42:38;12.60;99.90
44117;DHT22;29781;49.480;8.512;2022-10-31T02:45:11;12.70;99.90
44117;DHT22;29781;49.480;8.512;2022-10-31T02:47:40;13.00;99.90
44117;DHT22;29781;49.480;8.512;2022-10-31T02:50:12;13.20;99.90
44117;DHT22;29781;49.480;8.512;2022-10-31T02:52:39;13.20;99.90
44117;DHT22;29781;49.480;8.512;2022-10-31T02:58:04;13.40;99.90
44117;DHT22;29781;49.480;8.512;2022-10-31T03:00:40;13.60;99.90
44117;DHT22;29781;49.480;8.512;2022-10-31T03:03:16;13.50;99.90
44117;DHT22;29781;49.480;8.512;2022-10-31T03:05:53;13.60;99.90
44117;DHT22;29781;49.480;8.512;2022-10-31T03:08:44;13.50;99.90
44117;DHT22;29781;49.480;8.512;2022-10-31T03:11:13;13.50;99.90
44117;DHT22;29781;49.480;8.512;2022-10-31T03:13:46;13.60;99.90
44117;DHT22;29781;49.480;8.512;2022-10-31T03:16:27;13.60;99.90
44117;DHT22;29781;49.480;8.512;2022-10-31T03:18:58;13.70;99.90
44117;DHT22;29781;49.480;8.512;2022-10-31T03:21:43;13.70;99.90
44117;DHT22;29781;49.480;8.512;2022-10-31T03:24:10;13.60;99.90
44117;DHT22;29781;49.480;8.512;2022-10-31T03:26:40;13.70;99.90
44117;DHT22;29781;49.480;8.512;2022-10-31T03:29:09;13.80;99.90
44117;DHT22;29781;49.480;8.512;2022-10-31T03:31:59;13.70;99.90
44117;DHT22;29781;49.480;8.512;2022-10-31T03:34:24;13.50;99.90
44117;DHT22;29781;49.480;8.512;2022-10-31T03:36:52;13.40;99.90
44117;DHT22;29781;49.480;8.512;2022-10-31T03:39:22;13.50;99.90
44117;DHT22;29781;49.480;8.512;2022-10-31T03:42:06;13.60;99.90
44117;DHT22;29781;49.480;8.512;2022-10-31T03:44:33;13.80;99.90
44117;DHT22;29781;49.480;8.512;2022-10-31T03:47:01;13.80;99.90
44117;DHT22;29781;49.480;8.512;2022-10-31T03:49:28;13.80;99.90
44117;DHT22;29781;49.480;8.512;2022-10-31T03:54:43;13.90;99.90
44117;DHT22;29781;49.480;8.512;2022-10-31T03:59:53;13.90;99.90
44117;DHT22;29781;49.480;8.512;2022-10-31T04:02:22;13.90;99.90
44117;DHT22;29781;49.480;8.512;2022-10-31T04:04:51;13.90;99.90
44117;DHT22;29781;49.480;8.512;2022-10-31T04:07:17;13.80;99.90
44117;DHT22;29781;49.480;8.512;2022-10-31T04:09:45;13.60;99.90
44117;DHT22;29781;49.480;8.512;2022-10-31T04:12:14;13.30;99.90
44117;DHT22;29781;49.480;8.512;2022-10-31T04:14:43;13.10;99.90
44117;DHT22;29781;49.480;8.512;2022-10-31T04:17:13;13.00;99.90
44117;DHT22;29781;49.480;8.512;2022-10-31T04:19:40;13.00;99.90
44117;DHT22;29781;49.480;8.512;2022-10-31T04:22:06;13.00;99.90
44117;DHT22;29781;49.480;8.512;2022-10-31T04:24:32;13.20;99.90
44117;DHT22;29781;49.480;8.512;2022-10-31T04:26:57;13.30;99.90
44117;DHT22;29781;49.480;8.512;2022-10-31T04:29:23;13.40;99.90
44117;DHT22;29781;49.480;8.512;2022-10-31T04:31:49;13.40;99.90
44117;DHT22;29781;49.480;8.512;2022-10-31T04:34:14;13.40;99.90
44117;DHT22;29781;49.480;8.512;2022-10-31T04:36:40;13.40;99.90
44117;DHT22;29781;49.480;8.512;2022-10-31T04:39:05;13.40;99.90
44117;DHT22;29781;49.480;8.512;2022-10-31T04:41:31;13.40;99.90
44117;DHT22;29781;49.480;8.512;2022-10-31T04:43:57;13.40;99.90
44117;DHT22;29781;49.480;8.512;2022-10-31T04:46:22;13.40;99.90
44117;DHT22;29781;49.480;8.512;2022-10-31T04:48:48;13.40;99.90
44117;DHT22;29781;49.480;8.512;2022-10-31T04:51:14;13.30;99.90
44117;DHT22;29781;49.480;8.512;2022-10-31T04:53:39;13.20;99.90
44117;DHT22;29781;49.480;8.512;2022-10-31T04:56:05;13.20;99.90
44117;DHT22;29781;49.480;8.512;2022-10-31T04:58:31;13.00;99.90
44117;DHT22;29781;49.480;8.512;2022-10-31T05:00:57;13.10;99.90
44117;DHT22;29781;49.480;8.512;2022-10-31T05:03:22;13.10;99.90
44117;DHT22;29781;49.480;8.512;2022-10-31T05:05:48;13.10;99.90
44117;DHT22;29781;49.480;8.512;2022-10-31T05:08:14;13.10;99.90
44117;DHT22;29781;49.480;8.512;2022-10-31T05:10:40;13.10;99.90
44117;DHT22;29781;49.480;8.512;2022-10-31T05:13:06;13.00;99.90
44117;DHT22;29781;49.480;8.512;2022-10-31T05:15:32;13.10;99.90
44117;DHT22;29781;49.480;8.512;2022-10-31T05:17:58;13.20;99.90
44117;DHT22;29781;49.480;8.512;2022-10-31T05:20:26;13.30;99.90
44117;DHT22;29781;49.480;8.512;2022-10-31T05:22:54;13.40;99.90
44117;DHT22;29781;49.480;8.512;2022-10-31T05:25:21;13.40;99.90
44117;DHT22;29781;49.480;8.512;2022-10-31T05:27:48;13.40;99.90
44117;DHT22;29781;49.480;8.512;2022-10-31T05:30:17;13.40;99.90
44117;DHT22;29781;49.480;8.512;2022-10-31T05:32:45;13.20;99.90
44117;DHT22;29781;49.480;8.512;2022-10-31T05:35:20;13.20;99.90
44117;DHT22;29781;49.480;8.512;2022-10-31T05:37:46;13.20;99.90
44117;DHT22;29781;49.480;8.512;2022-10-31T05:40:13;13.00;99.90
44117;DHT22;29781;49.480;8.512;2022-10-31T05:42:40;12.80;99.90
44117;DHT22;29781;49.480;8.512;2022-10-31T05:45:08;12.70;99.90
44117;DHT22;29781;49.480;8.512;2022-10-31T05:47:34;12.20;99.90
44117;DHT22;29781;49.480;8.512;2022-10-31T05:49:59;11.80;99.90
44117;DHT22;29781;49.480;8.512;2022-10-31T05:52:25;11.70;99.90
44117;DHT22;29781;49.480;8.512;2022-10-31T05:54:51;11.60;99.90
44117;DHT22;29781;49.480;8.512;2022-10-31T05:57:16;11.50;99.90
44117;DHT22;29781;49.480;8.512;2022-10-31T05:59:42;11.40;99.90
44117;DHT22;29781;49.480;8.512;2022-10-31T06:02:07;11.40;99.90
44117;DHT22;29781;49.480;8.512;2022-10-31T06:04:33;11.20;99.90
44117;DHT22;29781;49.480;8.512;2022-10-31T06:06:59;11.20;99.90
44117;DHT22;29781;49.480;8.512;2022-10-31T06:09:24;11.30;99.90
44117;DHT22;29781;49.480;8.512;2022-10-31T06:11:50;11.30;99.90
44117;DHT22;29781;49.480;8.512;2022-10-31T06:14:16;11.30;99.90
44117;DHT22;29781;49.480;8.512;2022-10-31T06:16:41;11.20;99.90
44117;DHT22;29781;49.480;8.512;2022-10-31T06:19:07;11.30;99.90
44117;DHT22;29781;49.480;8.512;2022-10-31T06:21:32;11.40;99.90
44117;DHT22;29781;49.480;8.512;2022-10-31T06:23:58;11.50;99.90
44117;DHT22;29781;49.480;8.512;2022-10-31T06:26:24;11.60;99.90
44117;DHT22;29781;49.480;8.512;2022-10-31T06:28:49;11.60;99.90
44117;DHT22;29781;49.480;8.512;2022-10-31T06:31:15;11.70;99.90
44117;DHT22;29781;49.480;8.512;2022-10-31T06:33:41;11.80;99.90
44117;DHT22;29781;49.480;8.512;2022-10-31T06:36:08;11.80;99.90
44117;DHT22;29781;49.480;8.512;2022-10-31T06:38:34;11.80;99.90
44117;DHT22;29781;49.480;8.512;2022-10-31T06:41:04;11.80;99.90
44117;DHT22;29781;49.480;8.512;2022-10-31T06:43:30;11.60;99.90
44117;DHT22;29781;49.480;8.512;2022-10-31T06:45:56;11.50;99.90
44117;DHT22;29781;49.480;8.512;2022-10-31T06:48:21;11.50;99.90
44117;DHT22;29781;49.480;8.512;2022-10-31T06:50:47;11.20;99.90
44117;DHT22;29781;49.480;8.512;2022-10-31T06:53:13;11.10;99.90
44117;DHT22;29781;49.480;8.512;2022-10-31T06:55:42;11.10;99.90
44117;DHT22;29781;49.480;8.512;2022-10-31T06:58:09;11.10;99.90
44117;DHT22;29781;49.480;8.512;2022-10-31T07:00:35;11.20;99.90
44117;DHT22;29781;49.480;8.512;2022-10-31T07:03:03;11.40;99.90
44117;DHT22;29781;49.480;8.512;2022-10-31T07:05:30;11.50;99.90
44117;DHT22;29781;49.480;8.512;2022-10-31T07:07:57;11.70;99.90
44117;DHT22;29781;49.480;8.512;2022-10-31T07:10:24;11.70;99.90
44117;DHT22;29781;49.480;8.512;2022-10-31T07:12:58;11.90;99.90
44117;DHT22;29781;49.480;8.512;2022-10-31T07:15:25;12.00;99.90
44117;DHT22;29781;49.480;8.512;2022-10-31T07:17:51;12.00;99.90
44117;DHT22;29781;49.480;8.512;2022-10-31T07:20:17;11.60;99.90
44117;DHT22;29781;49.480;8.512;2022-10-31T07:22:43;11.40;99.90
44117;DHT22;29781;49.480;8.512;2022-10-31T07:25:09;11.40;99.90
44117;DHT22;29781;49.480;8.512;2022-10-31T07:27:39;11.40;99.90
44117;DHT22;29781;49.480;8.512;2022-10-31T07:30:06;11.60;99.90
44117;DHT22;29781;49.480;8.512;2022-10-31T07:32:46;11.90;99.90
44117;DHT22;29781;49.480;8.512;2022-10-31T07:35:16;12.00;99.90
44117;DHT22;29781;49.480;8.512;2022-10-31T07:37:42;11.90;99.90
44117;DHT22;29781;49.480;8.512;2022-10-31T07:40:09;12.20;99.90
44117;DHT22;29781;49.480;8.512;2022-10-31T07:42:37;12.50;99.90
44117;DHT22;29781;49.480;8.512;2022-10-31T07:45:04;12.60;99.90
44117;DHT22;29781;49.480;8.512;2022-10-31T07:47:38;12.60;99.90
44117;DHT22;29781;49.480;8.512;2022-10-31T07:50:04;12.80;99.90
44117;DHT22;29781;49.480;8.512;2022-10-31T07:52:30;12.70;99.90
44117;DHT22;29781;49.480;8.512;2022-10-31T07:54:55;12.50;99.90
44117;DHT22;29781;49.480;8.512;2022-10-31T07:57:21;12.40;99.90
44117;DHT22;29781;49.480;8.512;2022-10-31T07:59:46;12.50;99.90
44117;DHT22;29781;49.480;8.512;2022-10-31T08:02:12;12.60;99.90
44117;DHT22;29781;49.480;8.512;2022-10-31T08:04:38;12.80;99.90
44117;DHT22;29781;49.480;8.512;2022-10-31T08:07:03;13.10;99.90
44117;DHT22;29781;49.480;8.512;2022-10-31T08:09:29;13.20;99.90
44117;DHT22;29781;49.480;8.512;2022-10-31T08:11:54;12.70;99.90
44117;DHT22;29781;49.480;8.512;2022-10-31T08:14:20;12.50;99.90
44117;DHT22;29781;49.480;8.512;2022-10-31T08:16:46;12.40;99.90
44117;DHT22;29781;49.480;8.512;2022-10-31T08:19:12;12.50;99.90
44117;DHT22;29781;49.480;8.512;2022-10-31T08:21:37;12.60;99.90
44117;DHT22;29781;49.480;8.512;2022-10-31T08:24:03;12.50;99.90
44117;DHT22;29781;49.480;8.512;2022-10-31T08:26:29;12.50;99.90
44117;DHT22;29781;49.480;8.512;2022-10-31T08:28:55;12.60;99.90
44117;DHT22;29781;49.480;8.512;2022-10-31T08:31:21;12.80;99.90
44117;DHT22;29781;49.480;8.512;2022-10-31T08:33:46;13.20;99.90
44117;DHT22;29781;49.480;8.512;2022-10-31T08:36:13;13.60;99.90
44117;DHT22;29781;49.480;8.512;2022-10-31T08:38:38;13.90;99.90
44117;DHT22;29781;49.480;8.512;2022-10-31T08:41:04;14.10;99.90
44117;DHT22;29781;49.480;8.512;2022-10-31T08:43:30;14.30;99.90
44117;DHT22;29781;49.480;8.512;2022-10-31T08:45:55;14.40;99.90
44117;DHT22;29781;49.480;8.512;2022-10-31T08:48:21;14.50;99.90
44117;DHT22;29781;49.480;8.512;2022-10-31T08:50:47;14.50;99.90
44117;DHT22;29781;49.480;8.512;2022-10-31T08:53:15;14.50;99.90
44117;DHT22;29781;49.480;8.512;2022-10-31T08:55:42;14.70;99.90
44117;DHT22;29781;49.480;8.512;2022-10-31T08:58:26;15.10;99.90
44117;DHT22;29781;49.480;8.512;2022-10-31T09:00:54;15.30;99.90
44117;DHT22;29781;49.480;8.512;2022-10-31T09:03:27;15.20;99.90
44117;DHT22;29781;49.480;8.512;2022-10-31T09:05:58;15.40;99.90
44117;DHT22;29781;49.480;8.512;2022-10-31T09:08:24;15.80;99.90
44117;DHT22;29781;49.480;8.512;2022-10-31T09:10:50;16.00;99.90
44117;DHT22;29781;49.480;8.512;2022-10-31T09:13:20;16.30;99.90
44117;DHT22;29781;49.480;8.512;2022-10-31T09:15:48;16.40;99.90
44117;DHT22;29781;49.480;8.512;2022-10-31T09:18:15;16.40;99.90
44117;DHT22;29781;49.480;8.512;2022-10-31T09:20:42;16.40;99.90
44117;DHT22;29781;49.480;8.512;2022-10-31T09:23:20;16.30;99.90
44117;DHT22;29781;49.480;8.512;2022-10-31T09:25:47;16.30;99.90
44117;DHT22;29781;49.480;8.512;2022-10-31T09:28:15;16.20;99.90
44117;DHT22;29781;49.480;8.512;2022-10-31T09:30:41;16.10;99.90
44117;DHT22;29781;49.480;8.512;2022-10-31T09:33:11;16.00;99.90
44117;DHT22;29781;49.480;8.512;2022-10-31T09:35:37;16.10;99.90
44117;DHT22;29781;49.480;8.512;2022-10-31T09:38:06;16.20;99.90
44117;DHT22;29781;49.480;8.512;2022-10-31T09:43:06;16.10;99.90
44117;DHT22;29781;49.480;8.512;2022-10-31T09:45:47;16.20;99.90
44117;DHT22;29781;49.480;8.512;2022-10-31T09:48:57;16.20;99.90
44117;DHT22;29781;49.480;8.512;2022-10-31T09:51:28;16.20;99.90
44117;DHT22;29781;49.480;8.512;2022-10-31T09:54:00;16.00;99.90
44117;DHT22;29781;49.480;8.512;2022-10-31T09:56:27;15.70;99.90
44117;DHT22;29781;49.480;8.512;2022-10-31T09:58:57;15.70;99.90
44117;DHT22;29781;49.480;8.512;2022-10-31T10:04:18;16.00;99.90
44117;DHT22;29781;49.480;8.512;2022-10-31T10:06:48;16.20;99.90
44117;DHT22;29781;49.480;8.512;2022-10-31T10:09:15;16.20;99.90
44117;DHT22;29781;49.480;8.512;2022-10-31T10:12:01;16.00;99.90
44117;DHT22;29781;49.480;8.512;2022-10-31T10:14:50;16.10;99.90
44117;DHT22;29781;49.480;8.512;2022-10-31T10:17:24;16.20;99.90
44117;DHT22;29781;49.480;8.512;2022-10-31T10:20:11;16.10;99.90
44117;DHT22;29781;49.480;8.512;2022-10-31T10:25:16;16.40;99.90
44117;DHT22;29781;49.480;8.512;2022-10-31T10:33:04;16.70;99.90
44117;DHT22;29781;49.480;8.512;2022-10-31T10:35:44;16.90;99.90
44117;DHT22;29781;49.480;8.512;2022-10-31T10:38:41;16.90;99.90
44117;DHT22;29781;49.480;8.512;2022-10-31T10:41:21;16.90;99.90
44117;DHT22;29781;49.480;8.512;2022-10-31T10:43:49;17.10;99.90
44117;DHT22;29781;49.480;8.512;2022-10-31T10:46:19;17.00;99.90
44117;DHT22;29781;49.480;8.512;2022-10-31T10:49:26;17.00;99.90
44117;DHT22;29781;49.480;8.512;2022-10-31T10:52:41;16.90;99.90
44117;DHT22;29781;49.480;8.512;2022-10-31T10:57:55;16.80;99.90
44117;DHT22;29781;49.480;8.512;2022-10-31T11:02:56;16.80;99.90
44117;DHT22;29781;49.480;8.512;2022-10-31T11:05:50;17.00;99.90
44117;DHT22;29781;49.480;8.512;2022-10-31T11:08:27;17.10;99.90
44117;DHT22;29781;49.480;8.512;2022-10-31T11:11:03;17.30;99.90
44117;DHT22;29781;49.480;8.512;2022-10-31T11:13:31;17.20;99.90
44117;DHT22;29781;49.480;8.512;2022-10-31T11:16:04;17.00;99.90
44117;DHT22;29781;49.480;8.512;2022-10-31T11:18:32;16.90;99.90
44117;DHT22;29781;49.480;8.512;2022-10-31T11:21:01;17.00;99.90
44117;DHT22;29781;49.480;8.512;2022-10-31T11:23:29;16.90;99.90
44117;DHT22;29781;49.480;8.512;2022-10-31T11:25:55;16.90;99.90
44117;DHT22;29781;49.480;8.512;2022-10-31T11:28:22;16.80;99.90
44117;DHT22;29781;49.480;8.512;2022-10-31T11:30:51;16.90;99.90
44117;DHT22;29781;49.480;8.512;2022-10-31T11:33:25;17.10;99.90
44117;DHT22;29781;49.480;8.512;2022-10-31T11:35:53;17.20;99.90
44117;DHT22;29781;49.480;8.512;2022-10-31T11:38:21;17.10;99.90
44117;DHT22;29781;49.480;8.512;2022-10-31T11:41:17;17.10;99.90
44117;DHT22;29781;49.480;8.512;2022-10-31T11:44:04;17.10;99.90
44117;DHT22;29781;49.480;8.512;2022-10-31T11:46:38;17.10;99.90
44117;DHT22;29781;49.480;8.512;2022-10-31T11:49:05;17.20;99.90
44117;DHT22;29781;49.480;8.512;2022-10-31T11:51:36;17.20;99.90
44117;DHT22;29781;49.480;8.512;2022-10-31T11:54:04;17.10;99.90
44117;DHT22;29781;49.480;8.512;2022-10-31T11:56:42;17.20;99.90
44117;DHT22;29781;49.480;8.512;2022-10-31T11:59:28;17.20;99.90
44117;DHT22;29781;49.480;8.512;2022-10-31T12:01:55;17.20;99.90
44117;DHT22;29781;49.480;8.512;2022-10-31T12:04:43;17.20;99.90
44117;DHT22;29781;49.480;8.512;2022-10-31T12:07:10;17.30;99.90
44117;DHT22;29781;49.480;8.512;2022-10-31T12:09:37;17.40;99.90
44117;DHT22;29781;49.480;8.512;2022-10-31T12:12:33;17.50;99.90
44117;DHT22;29781;49.480;8.512;2022-10-31T12:17:55;17.70;99.90
44117;DHT22;29781;49.480;8.512;2022-10-31T12:25:40;17.60;99.90
44117;DHT22;29781;49.480;8.512;2022-10-31T12:31:30;17.40;99.90
44117;DHT22;29781;49.480;8.512;2022-10-31T12:40:04;17.50;99.90
44117;DHT22;29781;49.480;8.512;2022-10-31T12:47:55;17.60;99.90
44117;DHT22;29781;49.480;8.512;2022-10-31T12:58:42;17.90;99.90
44117;DHT22;29781;49.480;8.512;2022-10-31T13:01:30;17.80;99.90
44117;DHT22;29781;49.480;8.512;2022-10-31T13:04:16;17.60;99.90
44117;DHT22;29781;49.480;8.512;2022-10-31T13:06:50;17.40;99.90
44117;DHT22;29781;49.480;8.512;2022-10-31T13:09:20;17.40;99.90
44117;DHT22;29781;49.480;8.512;2022-10-31T13:11:56;17.40;99.90
44117;DHT22;29781;49.480;8.512;2022-10-31T13:14:30;17.40;99.90
44117;DHT22;29781;49.480;8.512;2022-10-31T13:16:59;17.50;99.90
44117;DHT22;29781;49.480;8.512;2022-10-31T13:19:34;17.40;99.90
44117;DHT22;29781;49.480;8.512;2022-10-31T13:24:37;17.40;99.90
44117;DHT22;29781;49.480;8.512;2022-10-31T13:27:20;17.50;99.90
44117;DHT22;29781;49.480;8.512;2022-10-31T13:30:15;17.40;99.90
44117;DHT22;29781;49.480;8.512;2022-10-31T13:32:55;17.40;99.90
44117;DHT22;29781;49.480;8.512;2022-10-31T13:38:21;17.50;99.90
44117;DHT22;29781;49.480;8.512;2022-10-31T13:44:20;17.70;99.90
44117;DHT22;29781;49.480;8.512;2022-10-31T13:46:49;17.90;99.90
44117;DHT22;29781;49.480;8.512;2022-10-31T13:52:12;18.00;99.90
44117;DHT22;29781;49.480;8.512;2022-10-31T13:54:41;18.00;99.90
44117;DHT22;29781;49.480;8.512;2022-10-31T13:57:19;18.10;99.90
44117;DHT22;29781;49.480;8.512;2022-10-31T14:02:48;18.40;99.90
44117;DHT22;29781;49.480;8.512;2022-10-31T14:05:32;18.40;99.90
44117;DHT22;29781;49.480;8.512;2022-10-31T14:08:00;18.50;99.90
44117;DHT22;29781;49.480;8.512;2022-10-31T14:10:36;18.40;99.90
44117;DHT22;29781;49.480;8.512;2022-10-31T14:13:15;18.50;99.90
44117;DHT22;29781;49.480;8.512;2022-10-31T14:16:00;18.50;99.90
44117;DHT22;29781;49.480;8.512;2022-10-31T14:18:38;18.50;99.90
44117;DHT22;29781;49.480;8.512;2022-10-31T14:21:38;18.60;99.90
44117;DHT22;29781;49.480;8.512;2022-10-31T14:29:46;18.50;99.90
44117;DHT22;29781;49.480;8.512;2022-10-31T14:34:40;18.40;99.90
44117;DHT22;29781;49.480;8.512;2022-10-31T14:45:55;18.20;99.90
44117;DHT22;29781;49.480;8.512;2022-10-31T14:51:42;18.20;99.90
44117;DHT22;29781;49.480;8.512;2022-10-31T14:54:27;18.10;99.90
44117;DHT22;29781;49.480;8.512;2022-10-31T14:56:56;18.10;99.90
44117;DHT22;29781;49.480;8.512;2022-10-31T14:59:28;18.10;99.90
44117;DHT22;29781;49.480;8.512;2022-10-31T15:02:01;18.00;99.90
44117;DHT22;29781;49.480;8.512;2022-10-31T15:04:30;18.10;99.90
44117;DHT22;29781;49.480;8.512;2022-10-31T15:09:29;17.90;99.90
44117;DHT22;29781;49.480;8.512;2022-10-31T15:11:55;17.90;99.90
44117;DHT22;29781;49.480;8.512;2022-10-31T15:14:28;17.70;99.90
44117;DHT22;29781;49.480;8.512;2022-10-31T15:16:57;17.50;99.90
44117;DHT22;29781;49.480;8.512;2022-10-31T15:19:26;17.30;99.90
44117;DHT22;29781;49.480;8.512;2022-10-31T15:21:54;17.30;99.90
44117;DHT22;29781;49.480;8.512;2022-10-31T15:24:22;17.20;99.90
44117;DHT22;29781;49.480;8.512;2022-10-31T15:26:51;17.00;99.90
44117;DHT22;29781;49.480;8.512;2022-10-31T15:29:20;17.00;99.90
44117;DHT22;29781;49.480;8.512;2022-10-31T15:34:40;17.00;99.90
44117;DHT22;29781;49.480;8.512;2022-10-31T15:37:20;17.10;99.90
44117;DHT22;29781;49.480;8.512;2022-10-31T15:39:47;17.20;99.90
44117;DHT22;29781;49.480;8.512;2022-10-31T15:42:29;17.10;99.90
44117;DHT22;29781;49.480;8.512;2022-10-31T15:45:00;17.00;99.90
44117;DHT22;29781;49.480;8.512;2022-10-31T15:47:29;16.90;99.90
44117;DHT22;29781;49.480;8.512;2022-10-31T15:49:57;16.80;99.90
44117;DHT22;29781;49.480;8.512;2022-10-31T15:52:43;16.70;99.90
44117;DHT22;29781;49.480;8.512;2022-10-31T15:57:45;16.60;99.90
44117;DHT22;29781;49.480;8.512;2022-10-31T16:00:40;16.60;99.90
44117;DHT22;29781;49.480;8.512;2022-10-31T16:08:44;16.60;99.90
44117;DHT22;29781;49.480;8.512;2022-10-31T16:16:32;16.30;99.90
44117;DHT22;29781;49.480;8.512;2022-10-31T16:18:59;16.30;99.90
44117;DHT22;29781;49.480;8.512;2022-10-31T16:21:28;16.30;99.90
44117;DHT22;29781;49.480;8.512;2022-10-31T16:23:59;16.30;99.90
44117;DHT22;29781;49.480;8.512;2022-10-31T16:26:26;16.30;99.90
44117;DHT22;29781;49.480;8.512;2022-10-31T16:28:54;16.40;99.90
44117;DHT22;29781;49.480;8.512;2022-10-31T16:31:29;16.40;99.90
44117;DHT22;29781;49.480;8.512;2022-10-31T16:34:23;16.40;99.90
44117;DHT22;29781;49.480;8.512;2022-10-31T16:36:48;16.50;99.90
44117;DHT22;29781;49.480;8.512;2022-10-31T16:39:14;16.60;99.90
44117;DHT22;29781;49.480;8.512;2022-10-31T16:41:41;16.60;99.90
44117;DHT22;29781;49.480;8.512;2022-10-31T16:44:25;16.60;99.90
44117;DHT22;29781;49.480;8.512;2022-10-31T16:47:15;16.70;99.90
44117;DHT22;29781;49.480;8.512;2022-10-31T16:49:42;16.70;99.90
44117;DHT22;29781;49.480;8.512;2022-10-31T16:52:08;16.80;99.90
44117;DHT22;29781;49.480;8.512;2022-10-31T16:54:33;16.70;99.90
44117;DHT22;29781;49.480;8.512;2022-10-31T16:56:59;16.70;99.90
44117;DHT22;29781;49.480;8.512;2022-10-31T16:59:27;16.60;99.90
44117;DHT22;29781;49.480;8.512;2022-10-31T17:01:53;16.60;99.90
44117;DHT22;29781;49.480;8.512;2022-10-31T17:04:19;16.70;99.90
44117;DHT22;29781;49.480;8.512;2022-10-31T17:06:44;16.70;99.90
44117;DHT22;29781;49.480;8.512;2022-10-31T17:09:10;16.50;99.90
44117;DHT22;29781;49.480;8.512;2022-10-31T17:11:44;16.20;99.90
44117;DHT22;29781;49.480;8.512;2022-10-31T17:14:10;16.20;99.90
44117;DHT22;29781;49.480;8.512;2022-10-31T17:16:36;16.20;99.90
44117;DHT22;29781;49.480;8.512;2022-10-31T17:19:02;15.90;99.90
44117;DHT22;29781;49.480;8.512;2022-10-31T17:21:28;15.80;99.90
44117;DHT22;29781;49.480;8.512;2022-10-31T17:23:53;15.80;99.90
44117;DHT22;29781;49.480;8.512;2022-10-31T17:26:19;15.80;99.90
44117;DHT22;29781;49.480;8.512;2022-10-31T17:28:45;15.90;99.90
44117;DHT22;29781;49.480;8.512;2022-10-31T17:31:22;15.90;99.90
44117;DHT22;29781;49.480;8.512;2022-10-31T17:33:49;15.90;99.90
44117;DHT22;29781;49.480;8.512;2022-10-31T17:36:15;16.00;99.90
44117;DHT22;29781;49.480;8.512;2022-10-31T17:38:41;16.10;99.90
44117;DHT22;29781;49.480;8.512;2022-10-31T17:41:07;16.20;99.90
44117;DHT22;29781;49.480;8.512;2022-10-31T17:43:33;16.20;99.90
44117;DHT22;29781;49.480;8.512;2022-10-31T17:45:59;16.20;99.90
44117;DHT22;29781;49.480;8.512;2022-10-31T17:48:26;16.30;99.90
44117;DHT22;29781;49.480;8.512;2022-10-31T17:50:51;16.30;99.90
44117;DHT22;29781;49.480;8.512;2022-10-31T17:53:17;16.20;99.90
44117;DHT22;29781;49.480;8.512;2022-10-31T17:55:42;16.10;99.90